createdAt,value
2022-10-20T00:00:11.871Z,98443.81
2022-10-20T00:02:40.832Z,98443.19
2022-10-20T00:05:10.243Z,98445.19
2022-10-20T00:07:38.723Z,98445.19
2022-10-20T00:10:09.931Z,98446.78
2022-10-20T00:12:38.686Z,98445.78
2022-10-20T00:15:08.783Z,98451.63
2022-10-20T00:17:37.245Z,98457.28
2022-10-20T00:20:07.256Z,98455.66
2022-10-20T00:22:35.834Z,98433.03
2022-10-20T00:25:05.720Z,98427.72
2022-10-20T00:27:36.615Z,98425.09
2022-10-20T00:30:06.941Z,98422.03
2022-10-20T00:32:36.707Z,98411.94
2022-10-20T00:35:06.540Z,98401.41
2022-10-20T00:37:35.279Z,98401.81
2022-10-20T00:40:05.090Z,98407.88
2022-10-20T00:42:36.204Z,98404.25
2022-10-20T00:45:13.239Z,98406.63
2022-10-20T00:47:49.452Z,98415.13
2022-10-20T00:50:23.519Z,98415.13
2022-10-20T00:52:54.804Z,98412.28
2022-10-20T00:55:30.788Z,98410.63
2022-10-20T00:58:03.926Z,98419.16
2022-10-20T01:00:33.949Z,98412.09
2022-10-20T01:03:05.612Z,98416.53
2022-10-20T01:05:34.317Z,98409.03
2022-10-20T01:08:03.467Z,98404.78
2022-10-20T01:10:42.622Z,98408.41
2022-10-20T01:13:26.752Z,98398.91
2022-10-20T01:16:10.839Z,98395.50
2022-10-20T01:18:54.910Z,98388.41
2022-10-20T01:21:57.814Z,98396.09
2022-10-20T01:24:47.472Z,98392.03
2022-10-20T01:27:37.568Z,98377.28
2022-10-20T01:30:13.335Z,98378.28
2022-10-20T01:33:02.950Z,98373.66
2022-10-20T01:35:45.283Z,98368.56
2022-10-20T01:38:25.079Z,98365.50
2022-10-20T01:41:04.175Z,98367.75
2022-10-20T01:43:39.422Z,98365.13
2022-10-20T01:46:13.791Z,98356.63
2022-10-20T01:48:43.467Z,98356.63
2022-10-20T01:51:13.727Z,98341.44
2022-10-20T01:53:42.447Z,98332.16
2022-10-20T01:56:20.567Z,98337.19
2022-10-20T01:59:31.105Z,98343.47
2022-10-20T02:02:24.658Z,98330.91
2022-10-20T02:05:17.318Z,98336.34
2022-10-20T02:07:45.953Z,98335.34
2022-10-20T02:10:20.887Z,98336.97
2022-10-20T02:12:55.552Z,98342.84
2022-10-20T02:15:30.180Z,98333.72
2022-10-20T02:18:04.827Z,98330.50
2022-10-20T02:20:35.203Z,98331.47
2022-10-20T02:23:07.223Z,98325.41
2022-10-20T02:25:36.937Z,98327.03
2022-10-20T02:28:10.236Z,98328.84
2022-10-20T02:30:44.105Z,98317.53
2022-10-20T02:33:14.866Z,98321.16
2022-10-20T02:35:51.787Z,98313.44
2022-10-20T02:38:20.726Z,98312.03
2022-10-20T02:40:50.192Z,98305.53
2022-10-20T02:43:19.180Z,98313.84
2022-10-20T02:45:49.985Z,98323.53
2022-10-20T02:48:18.536Z,98317.47
2022-10-20T02:50:47.744Z,98311.78
2022-10-20T02:53:16.813Z,98317.41
2022-10-20T02:55:45.903Z,98308.09
2022-10-20T02:58:15.296Z,98299.16
2022-10-20T03:00:43.934Z,98303.81
2022-10-20T03:03:14.660Z,98305.19
2022-10-20T03:05:44.667Z,98293.28
2022-10-20T03:08:13.848Z,98291.03
2022-10-20T03:10:42.905Z,98293.25
2022-10-20T03:13:12.094Z,98286.75
2022-10-20T03:15:41.258Z,98280.88
2022-10-20T03:18:09.843Z,98279.88
2022-10-20T03:20:39.675Z,98285.91
2022-10-20T03:23:08.925Z,98279.81
2022-10-20T03:25:37.831Z,98276.53
2022-10-20T03:28:07.181Z,98275.13
2022-10-20T03:30:35.723Z,98274.56
2022-10-20T03:33:05.424Z,98273.06
2022-10-20T03:35:34.049Z,98277.94
2022-10-20T03:38:03.947Z,98278.56
2022-10-20T03:40:33.231Z,98279.16
2022-10-20T03:43:02.216Z,98279.53
2022-10-20T03:45:31.068Z,98275.69
2022-10-20T03:47:59.558Z,98269.44
2022-10-20T03:50:28.414Z,98264.22
2022-10-20T03:52:57.489Z,98260.16
2022-10-20T03:55:28.175Z,98260.56
2022-10-20T03:57:56.909Z,98249.44
2022-10-20T04:00:26.015Z,98243.56
2022-10-20T04:02:55.743Z,98243.53
2022-10-20T04:05:24.454Z,98238.91
2022-10-20T04:07:54.617Z,98228.63
2022-10-20T04:10:23.273Z,98219.53
2022-10-20T04:12:53.466Z,98212.84
2022-10-20T04:15:22.047Z,98218.09
2022-10-20T04:17:50.525Z,98228.19
2022-10-20T04:20:19.298Z,98217.72
2022-10-20T04:22:48.417Z,98228.00
2022-10-20T04:25:18.530Z,98218.38
2022-10-20T04:27:47.991Z,98216.16
2022-10-20T04:30:19.201Z,98211.91
2022-10-20T04:32:48.296Z,98216.97
2022-10-20T04:35:17.845Z,98208.94
2022-10-20T04:37:46.580Z,98219.38
2022-10-20T04:40:16.575Z,98217.16
2022-10-20T04:42:45.748Z,98217.59
2022-10-20T04:45:15.127Z,98215.38
2022-10-20T04:47:45.888Z,98220.03
2022-10-20T04:50:14.429Z,98210.16
2022-10-20T04:52:44.580Z,98199.66
2022-10-20T04:55:13.275Z,98193.22
2022-10-20T04:57:41.951Z,98203.31
2022-10-20T05:00:12.591Z,98206.69
2022-10-20T05:02:42.026Z,98204.47
2022-10-20T05:05:12.374Z,98206.94
2022-10-20T05:07:41.443Z,98196.84
2022-10-20T05:10:12.987Z,98188.75
2022-10-20T05:12:41.596Z,98192.00
2022-10-20T05:15:11.144Z,98190.22
2022-10-20T05:17:40.476Z,98195.25
2022-10-20T05:20:12.113Z,98186.56
2022-10-20T05:22:40.935Z,98182.94
2022-10-20T05:25:35.132Z,98177.09
2022-10-20T05:28:00.071Z,98171.47
2022-10-20T05:30:29.893Z,98188.19
2022-10-20T05:32:58.970Z,98194.41
2022-10-20T05:35:30.672Z,98215.38
2022-10-20T05:38:00.375Z,98232.31
2022-10-20T05:40:29.288Z,98228.28
2022-10-20T05:42:58.866Z,98194.00
2022-10-20T05:45:27.727Z,98173.84
2022-10-20T05:47:56.243Z,98167.59
2022-10-20T05:50:24.876Z,98171.84
2022-10-20T05:52:55.498Z,98173.44
2022-10-20T05:55:24.300Z,98150.88
2022-10-20T05:57:54.302Z,98155.91
2022-10-20T06:00:30.905Z,98170.22
2022-10-20T06:03:01.105Z,98162.75
2022-10-20T06:05:29.710Z,98163.34
2022-10-20T06:08:00.596Z,98158.75
2022-10-20T06:10:29.254Z,98167.22
2022-10-20T06:12:58.149Z,98178.34
2022-10-20T06:15:28.694Z,98184.75
2022-10-20T06:17:58.140Z,98186.00
2022-10-20T06:20:27.849Z,98177.09
2022-10-20T06:22:58.788Z,98171.22
2022-10-20T06:25:27.574Z,98173.44
2022-10-20T06:27:56.731Z,98174.28
2022-10-20T06:30:25.306Z,98166.22
2022-10-20T06:32:56.184Z,98174.09
2022-10-20T06:35:24.876Z,98169.84
2022-10-20T06:37:53.453Z,98176.72
2022-10-20T06:40:24.296Z,98178.13
2022-10-20T06:42:53.259Z,98172.25
2022-10-20T06:45:22.175Z,98170.63
2022-10-20T06:47:51.310Z,98176.47
2022-10-20T06:50:21.135Z,98176.03
2022-10-20T06:52:49.705Z,98163.34
2022-10-20T06:55:18.621Z,98158.91
2022-10-20T06:57:48.967Z,98163.53
2022-10-20T07:00:18.117Z,98159.69
2022-10-20T07:02:46.784Z,98157.28
2022-10-20T07:05:16.334Z,98163.53
2022-10-20T07:07:45.046Z,98154.03
2022-10-20T07:10:13.779Z,98171.41
2022-10-20T07:12:42.773Z,98165.13
2022-10-20T07:15:13.892Z,98165.34
2022-10-20T07:17:44.345Z,98163.53
2022-10-20T07:20:13.232Z,98153.66
2022-10-20T07:22:42.515Z,98156.09
2022-10-20T07:25:11.510Z,98158.28
2022-10-20T07:27:40.637Z,98168.13
2022-10-20T07:30:12.811Z,98176.63
2022-10-20T07:32:42.790Z,98173.19
2022-10-20T07:35:11.574Z,98179.66
2022-10-20T07:37:40.169Z,98180.25
2022-10-20T07:40:10.382Z,98169.38
2022-10-20T07:42:39.314Z,98171.44
2022-10-20T07:45:10.170Z,98165.16
2022-10-20T07:47:43.133Z,98169.41
2022-10-20T07:50:14.654Z,98190.81
2022-10-20T07:52:43.332Z,98195.44
2022-10-20T07:55:33.518Z,98199.44
2022-10-20T07:58:02.043Z,98182.09
2022-10-20T08:00:30.843Z,98190.59
2022-10-20T08:03:00.891Z,98175.47
2022-10-20T08:05:30.858Z,98181.75
2022-10-20T08:08:00.988Z,98193.84
2022-10-20T08:10:29.936Z,98187.41
2022-10-20T08:12:58.506Z,98174.94
2022-10-20T08:15:27.080Z,98165.44
2022-10-20T08:17:57.754Z,98161.00
2022-10-20T08:20:40.317Z,98168.69
2022-10-20T08:23:08.880Z,98168.91
2022-10-20T08:25:38.167Z,98170.31
2022-10-20T08:28:07.115Z,98174.75
2022-10-20T08:30:36.485Z,98165.91
2022-10-20T08:33:05.701Z,98169.94
2022-10-20T08:35:35.649Z,98176.00
2022-10-20T08:38:07.858Z,98178.84
2022-10-20T08:40:42.346Z,98179.84
2022-10-20T08:43:18.648Z,98166.34
2022-10-20T08:45:48.123Z,98168.38
2022-10-20T08:48:24.137Z,98153.84
2022-10-20T08:50:56.106Z,98165.59
2022-10-20T08:53:28.081Z,98176.09
2022-10-20T08:55:58.459Z,98167.03
2022-10-20T08:58:26.989Z,98156.72
2022-10-20T09:01:01.822Z,98159.16
2022-10-20T09:03:34.410Z,98164.41
2022-10-20T09:06:14.169Z,98161.63
2022-10-20T09:08:44.829Z,98158.78
2022-10-20T09:11:23.844Z,98151.31
2022-10-20T09:13:54.327Z,98158.78
2022-10-20T09:16:40.699Z,98161.22
2022-10-20T09:19:19.167Z,98147.13
2022-10-20T09:21:54.613Z,98158.41
2022-10-20T09:24:27.640Z,98149.34
2022-10-20T09:26:59.485Z,98162.03
2022-10-20T09:29:38.979Z,98170.34
2022-10-20T09:32:45.420Z,98169.31
2022-10-20T09:35:28.897Z,98171.75
2022-10-20T09:38:06.792Z,98151.34
2022-10-20T09:40:36.014Z,98132.97
2022-10-20T09:43:13.098Z,98154.19
2022-10-20T09:45:53.856Z,98148.56
2022-10-20T09:48:28.313Z,98131.41
2022-10-20T09:51:00.574Z,98135.03
2022-10-20T09:53:36.858Z,98130.19
2022-10-20T09:56:08.268Z,98140.28
2022-10-20T09:58:42.877Z,98138.69
2022-10-20T10:01:17.882Z,98128.78
2022-10-20T10:03:49.000Z,98121.13
2022-10-20T10:06:43.035Z,98117.72
2022-10-20T10:09:35.284Z,98109.66
2022-10-20T10:12:15.527Z,98099.56
2022-10-20T10:14:54.568Z,98100.56
2022-10-20T10:17:31.891Z,98093.91
2022-10-20T10:20:01.202Z,98084.19
2022-10-20T10:22:31.219Z,98073.28
2022-10-20T10:25:03.633Z,98088.63
2022-10-20T10:27:35.975Z,98107.63
2022-10-20T10:30:29.454Z,98124.59
2022-10-20T10:32:58.493Z,98141.75
2022-10-20T10:35:33.001Z,98146.00
2022-10-20T10:38:03.379Z,98152.06
2022-10-20T10:40:43.587Z,98148.84
2022-10-20T10:43:31.195Z,98138.13
2022-10-20T10:46:06.790Z,98135.50
2022-10-20T10:49:18.088Z,98126.81
2022-10-20T10:52:02.816Z,98139.53
2022-10-20T10:54:50.210Z,98139.34
2022-10-20T10:57:33.627Z,98133.50
2022-10-20T11:00:14.072Z,98121.75
2022-10-20T11:03:04.579Z,98119.13
2022-10-20T11:06:03.659Z,98130.63
2022-10-20T11:09:05.700Z,98113.47
2022-10-20T11:11:52.759Z,98117.09
2022-10-20T11:14:42.622Z,98105.97
2022-10-20T11:17:37.661Z,98113.44
2022-10-20T11:20:34.359Z,98129.03
2022-10-20T11:23:48.715Z,98124.97
2022-10-20T11:26:29.191Z,98126.97
2022-10-20T11:29:00.991Z,98123.94
2022-10-20T11:31:38.229Z,98114.25
2022-10-20T11:34:16.292Z,98114.03
2022-10-20T11:36:53.114Z,98115.63
2022-10-20T11:39:31.984Z,98096.84
2022-10-20T11:42:14.288Z,98082.88
2022-10-20T11:44:45.662Z,98078.81
2022-10-20T11:47:20.371Z,98091.31
2022-10-20T11:49:49.132Z,98081.19
2022-10-20T11:52:50.106Z,98076.97
2022-10-20T11:55:45.062Z,98083.84
2022-10-20T11:58:35.910Z,98070.25
2022-10-20T12:01:29.771Z,98068.03
2022-10-20T12:04:58.795Z,98052.22
2022-10-20T12:08:17.427Z,98052.84
2022-10-20T12:11:02.121Z,98054.22
2022-10-20T12:13:49.188Z,98043.94
2022-10-20T12:17:13.507Z,98046.13
2022-10-20T12:19:42.376Z,98039.84
2022-10-20T12:22:45.164Z,98044.72
2022-10-20T12:25:36.135Z,98044.72
2022-10-20T12:28:43.334Z,98042.31
2022-10-20T12:31:12.553Z,98055.66
2022-10-20T12:34:04.530Z,98055.66
2022-10-20T12:36:41.706Z,98047.56
2022-10-20T12:39:24.930Z,98058.09
2022-10-20T12:42:02.445Z,98050.78
2022-10-20T12:44:45.123Z,98056.44
2022-10-20T12:47:25.058Z,98048.78
2022-10-20T12:50:01.108Z,98041.28
2022-10-20T12:52:35.401Z,98033.16
2022-10-20T12:55:17.954Z,98015.13
2022-10-20T12:57:48.511Z,98004.81
2022-10-20T13:01:07.338Z,98046.69
2022-10-20T13:03:48.301Z,98041.84
2022-10-20T13:06:46.825Z,98038.78
2022-10-20T13:09:23.051Z,98043.28
2022-10-20T13:12:07.319Z,98039.59
2022-10-20T13:14:54.597Z,98042.22
2022-10-20T13:17:47.325Z,98044.06
2022-10-20T13:20:32.131Z,98044.28
2022-10-20T13:23:01.962Z,98035.16
2022-10-20T13:25:38.954Z,98042.22
2022-10-20T13:28:22.255Z,98039.41
2022-10-20T13:31:22.192Z,98042.63
2022-10-20T13:34:06.369Z,98045.25
2022-10-20T13:37:04.587Z,98043.44
2022-10-20T13:39:46.263Z,98047.88
2022-10-20T13:42:36.715Z,98049.94
2022-10-20T13:45:23.076Z,98053.56
2022-10-20T13:48:02.349Z,98062.47
2022-10-20T13:50:36.781Z,98054.00
2022-10-20T13:53:23.243Z,98035.97
2022-10-20T13:56:02.185Z,98035.97
2022-10-20T13:58:31.200Z,98032.94
2022-10-20T14:01:06.938Z,98018.78
2022-10-20T14:03:45.305Z,97995.69
2022-10-20T14:06:35.050Z,97983.13
2022-10-20T14:09:18.119Z,97993.66
2022-10-20T14:11:50.295Z,98003.00
2022-10-20T14:14:25.622Z,98022.00
2022-10-20T14:17:00.167Z,98032.13
2022-10-20T14:19:31.511Z,98043.03
2022-10-20T14:22:14.248Z,98054.38
2022-10-20T14:24:47.855Z,98049.94
2022-10-20T14:27:22.720Z,98039.22
2022-10-20T14:29:54.077Z,98037.59
2022-10-20T14:32:27.793Z,98024.84
2022-10-20T14:34:59.070Z,98031.13
2022-10-20T14:37:34.937Z,98046.09
2022-10-20T14:40:07.166Z,98042.63
2022-10-20T14:42:42.557Z,98058.41
2022-10-20T14:45:22.917Z,98037.16
2022-10-20T14:47:54.591Z,98043.81
2022-10-20T14:50:34.364Z,98055.16
2022-10-20T14:53:33.879Z,98043.38
2022-10-20T14:56:04.983Z,98045.22
2022-10-20T14:58:55.933Z,98031.22
2022-10-20T15:01:31.658Z,98029.22
2022-10-20T15:04:18.464Z,98027.16
2022-10-20T15:06:47.333Z,98036.09
2022-10-20T15:09:31.827Z,98041.75
2022-10-20T15:12:06.606Z,98030.47
2022-10-20T15:14:36.180Z,98032.06
2022-10-20T15:17:05.121Z,98033.66
2022-10-20T15:19:38.127Z,98033.66
2022-10-20T15:22:15.214Z,98027.59
2022-10-20T15:24:44.814Z,98021.53
2022-10-20T15:27:18.429Z,98010.00
2022-10-20T15:29:52.280Z,98011.59
2022-10-20T15:32:21.144Z,98003.91
2022-10-20T15:34:51.275Z,98010.63
2022-10-20T15:37:20.066Z,98008.41
2022-10-20T15:39:49.468Z,98005.41
2022-10-20T15:42:18.298Z,98004.00
2022-10-20T15:44:46.991Z,98003.41
2022-10-20T15:47:15.711Z,98010.28
2022-10-20T15:49:44.498Z,97999.31
2022-10-20T15:52:17.819Z,98004.19
2022-10-20T15:54:46.578Z,98006.81
2022-10-20T15:57:16.172Z,98004.53
2022-10-20T15:59:44.771Z,97998.50
2022-10-20T16:02:14.867Z,97997.69
2022-10-20T16:04:43.723Z,97990.41
2022-10-20T16:07:14.234Z,97994.06
2022-10-20T16:09:42.921Z,98005.81
2022-10-20T16:12:12.406Z,97998.13
2022-10-20T16:14:43.625Z,98000.97
2022-10-20T16:17:13.180Z,98002.59
2022-10-20T16:19:41.872Z,97990.25
2022-10-20T16:22:10.873Z,97979.53
2022-10-20T16:24:41.070Z,97986.19
2022-10-20T16:27:10.522Z,97985.38
2022-10-20T16:29:39.276Z,97980.72
2022-10-20T16:32:07.907Z,97968.59
2022-10-20T16:34:36.587Z,97973.03
2022-10-20T16:37:05.409Z,97975.91
2022-10-20T16:39:34.546Z,97985.38
2022-10-20T16:42:05.071Z,97981.16
2022-10-20T16:44:34.229Z,97972.88
2022-10-20T16:47:02.903Z,97981.19
2022-10-20T16:49:31.428Z,97967.03
2022-10-20T16:52:01.684Z,97971.50
2022-10-20T16:54:30.858Z,97961.78
2022-10-20T16:57:00.271Z,97964.66
2022-10-20T16:59:30.332Z,97959.59
2022-10-20T17:01:59.085Z,97966.66
2022-10-20T17:04:28.690Z,97972.97
2022-10-20T17:06:57.309Z,97969.53
2022-10-20T17:09:26.604Z,97961.63
2022-10-20T17:11:56.007Z,97957.19
2022-10-20T17:14:25.183Z,97952.94
2022-10-20T17:16:55.563Z,97943.41
2022-10-20T17:19:24.424Z,97934.72
2022-10-20T17:21:58.194Z,97937.16
2022-10-20T17:24:26.877Z,97951.13
2022-10-20T17:26:57.629Z,97959.00
2022-10-20T17:29:26.407Z,97957.19
2022-10-20T17:32:00.559Z,97950.06
2022-10-20T17:34:29.029Z,97952.50
2022-10-20T17:36:58.044Z,97941.75
2022-10-20T17:39:27.990Z,97953.09
2022-10-20T17:41:56.569Z,97957.53
2022-10-20T17:44:25.338Z,97957.75
2022-10-20T17:46:53.847Z,97966.25
2022-10-20T17:49:23.759Z,97965.03
2022-10-20T17:51:52.249Z,97969.47
2022-10-20T17:54:20.816Z,97958.97
2022-10-20T17:56:52.476Z,97953.09
2022-10-20T17:59:21.002Z,97948.63
2022-10-20T18:01:49.584Z,97946.00
2022-10-20T18:04:19.537Z,97956.53
2022-10-20T18:06:49.660Z,97956.53
2022-10-20T18:09:20.028Z,97963.41
2022-10-20T18:11:52.426Z,97963.84
2022-10-20T18:14:21.158Z,97956.53
2022-10-20T18:16:49.989Z,97960.97
2022-10-20T18:19:20.577Z,97960.16
2022-10-20T18:21:50.852Z,97954.72
2022-10-20T18:24:20.180Z,97965.44
2022-10-20T18:26:49.665Z,97966.25
2022-10-20T18:29:20.263Z,97959.38
2022-10-20T18:31:51.358Z,97948.88
2022-10-20T18:34:21.719Z,97958.56
2022-10-20T18:36:54.860Z,97956.16
2022-10-20T18:39:23.611Z,97951.50
2022-10-20T18:41:54.684Z,97947.25
2022-10-20T18:44:23.940Z,97949.06
2022-10-20T18:46:57.779Z,97929.84
2022-10-20T18:49:28.031Z,97922.56
2022-10-20T18:51:58.033Z,97917.09
2022-10-20T18:54:26.526Z,97917.09
2022-10-20T18:56:55.027Z,97919.72
2022-10-20T18:59:23.658Z,97910.81
2022-10-20T19:01:52.166Z,97903.94
2022-10-20T19:04:20.700Z,97903.72
2022-10-20T19:06:50.454Z,97898.66
2022-10-20T19:09:22.391Z,97890.59
2022-10-20T19:11:52.380Z,97886.91
2022-10-20T19:14:21.024Z,97893.41
2022-10-20T19:16:50.241Z,97884.50
2022-10-20T19:19:19.359Z,97885.31
2022-10-20T19:21:49.533Z,97884.50
2022-10-20T19:24:22.407Z,97880.88
2022-10-20T19:27:02.210Z,97886.13
2022-10-20T19:29:37.412Z,97872.97
2022-10-20T19:32:07.945Z,97875.59
2022-10-20T19:34:39.682Z,97860.59
2022-10-20T19:37:09.889Z,97856.97
2022-10-20T19:39:44.289Z,97854.34
2022-10-20T19:42:14.339Z,97856.97
2022-10-20T19:44:43.964Z,97863.03
2022-10-20T19:47:12.928Z,97862.22
2022-10-20T19:49:45.014Z,97864.44
2022-10-20T19:52:14.669Z,97875.75
2022-10-20T19:54:45.244Z,97876.78
2022-10-20T19:57:14.302Z,97862.22
2022-10-20T19:59:43.264Z,97865.28
2022-10-20T20:02:13.549Z,97861.41
2022-10-20T20:04:42.797Z,97851.34
2022-10-20T20:07:11.739Z,97846.31
2022-10-20T20:09:40.534Z,97840.00
2022-10-20T20:12:11.123Z,97838.78
2022-10-20T20:14:40.071Z,97842.63
2022-10-20T20:17:11.020Z,97858.22
2022-10-20T20:19:40.771Z,97857.41
2022-10-20T20:22:09.442Z,97852.72
2022-10-20T20:24:39.046Z,97847.47
2022-10-20T20:27:07.728Z,97846.69
2022-10-20T20:29:38.040Z,97850.09
2022-10-20T20:32:07.593Z,97851.94
2022-10-20T20:34:37.367Z,97845.63
2022-10-20T20:37:06.445Z,97832.28
2022-10-20T20:39:35.917Z,97824.03
2022-10-20T20:42:04.937Z,97821.41
2022-10-20T20:44:33.610Z,97809.88
2022-10-20T20:47:04.062Z,97813.28
2022-10-20T20:49:32.775Z,97818.31
2022-10-20T20:52:01.475Z,97819.34
2022-10-20T20:54:32.272Z,97827.84
2022-10-20T20:57:01.718Z,97838.34
2022-10-20T20:59:30.589Z,97846.25
2022-10-20T21:01:59.254Z,97843.63
2022-10-20T21:04:30.706Z,97837.53
2022-10-20T21:07:02.495Z,97832.28
2022-10-20T21:09:32.323Z,97834.69
2022-10-20T21:12:01.173Z,97820.97
2022-10-20T21:14:30.552Z,97833.53
2022-10-20T21:16:59.080Z,97821.78
2022-10-20T21:19:30.052Z,97818.13
2022-10-20T21:21:58.594Z,97818.13
2022-10-20T21:24:28.955Z,97821.53
2022-10-20T21:26:57.528Z,97818.13
2022-10-20T21:29:26.254Z,97817.31
2022-10-20T21:31:55.626Z,97818.91
2022-10-20T21:34:24.113Z,97818.13
2022-10-20T21:36:54.063Z,97820.53
2022-10-20T21:39:22.735Z,97821.53
2022-10-20T21:41:52.102Z,97824.16
2022-10-20T21:44:20.788Z,97826.78
2022-10-20T21:46:51.049Z,97831.03
2022-10-20T21:49:25.918Z,97840.75
2022-10-20T21:51:58.214Z,97843.19
2022-10-20T21:54:29.473Z,97839.75
2022-10-20T21:56:59.020Z,97842.38
2022-10-20T21:59:30.185Z,97848.88
2022-10-20T22:02:02.259Z,97855.16
2022-10-20T22:04:32.219Z,97857.34
2022-10-20T22:07:02.170Z,97865.66
2022-10-20T22:09:30.731Z,97869.91
2022-10-20T22:12:00.820Z,97878.81
2022-10-20T22:14:31.643Z,97901.47
2022-10-20T22:17:00.339Z,97899.88
2022-10-20T22:19:29.106Z,97904.09
2022-10-20T22:24:27.920Z,97895.56
2022-10-20T22:26:56.452Z,97884.25
2022-10-20T22:29:26.159Z,97881.63
2022-10-20T22:31:55.295Z,97870.88
2022-10-20T22:34:24.612Z,97893.75
2022-10-20T22:36:53.562Z,97899.00
2022-10-20T22:39:22.152Z,97905.06
2022-10-20T22:41:52.106Z,97912.75
2022-10-20T22:44:20.880Z,97918.03
2022-10-20T22:46:49.307Z,97925.91
2022-10-20T22:49:17.879Z,97923.28
2022-10-20T22:51:46.427Z,97906.69
2022-10-20T22:54:14.977Z,97867.00
2022-10-20T22:56:43.536Z,97807.97
2022-10-20T22:59:13.902Z,97805.56
2022-10-20T23:01:42.373Z,97796.28
2022-10-20T23:04:10.810Z,97772.00
2022-10-20T23:06:40.093Z,97763.91
2022-10-20T23:09:09.533Z,97786.59
2022-10-20T23:11:38.049Z,97790.28
2022-10-20T23:14:07.160Z,97781.13
2022-10-20T23:16:38.244Z,97759.88
2022-10-20T23:19:07.542Z,97772.44
2022-10-20T23:21:36.184Z,97779.31
2022-10-20T23:24:04.879Z,97766.00
2022-10-20T23:26:34.284Z,97779.94
2022-10-20T23:29:02.833Z,97793.34
2022-10-20T23:31:31.591Z,97797.56
2022-10-20T23:34:02.089Z,97800.19
2022-10-20T23:36:33.250Z,97803.63
2022-10-20T23:39:04.314Z,97803.63
2022-10-20T23:41:32.984Z,97818.38
2022-10-20T23:44:01.467Z,97810.50
2022-10-20T23:46:32.313Z,97805.44
2022-10-20T23:49:03.426Z,97815.53
2022-10-20T23:51:33.619Z,97821.81
2022-10-20T23:54:02.618Z,97810.50
2022-10-20T23:56:31.220Z,97809.50
2022-10-20T23:58:59.689Z,97808.69
